sensor_id;sensor_type;location;lat;lon;timestamp;P1;durP1;ratioP1;P2;durP2;ratioP2
16813;SDS011;8524;57.650;11.926;2023-01-15T00:01:18;9.23;;;2.50;;
16813;SDS011;8524;57.650;11.926;2023-01-15T00:03:47;11.83;;;2.63;;
16813;SDS011;8524;57.650;11.926;2023-01-15T00:06:15;9.00;;;2.53;;
16813;SDS011;8524;57.650;11.926;2023-01-15T00:08:42;14.37;;;2.97;;
16813;SDS011;8524;57.650;11.926;2023-01-15T00:11:10;8.83;;;2.43;;
16813;SDS011;8524;57.650;11.926;2023-01-15T00:13:37;11.18;;;3.20;;
16813;SDS011;8524;57.650;11.926;2023-01-15T00:16:04;9.40;;;2.50;;
16813;SDS011;8524;57.650;11.926;2023-01-15T00:18:34;11.27;;;2.57;;
16813;SDS011;8524;57.650;11.926;2023-01-15T00:21:01;10.20;;;2.87;;
16813;SDS011;8524;57.650;11.926;2023-01-15T00:23:31;14.20;;;3.50;;
16813;SDS011;8524;57.650;11.926;2023-01-15T00:26:17;16.87;;;2.97;;
16813;SDS011;8524;57.650;11.926;2023-01-15T00:29:03;13.63;;;2.67;;
16813;SDS011;8524;57.650;11.926;2023-01-15T00:31:30;11.07;;;2.87;;
16813;SDS011;8524;57.650;11.926;2023-01-15T00:34:00;10.93;;;2.80;;
16813;SDS011;8524;57.650;11.926;2023-01-15T00:36:27;9.80;;;2.87;;
16813;SDS011;8524;57.650;11.926;2023-01-15T00:38:54;13.97;;;3.50;;
16813;SDS011;8524;57.650;11.926;2023-01-15T00:41:21;13.27;;;3.63;;
16813;SDS011;8524;57.650;11.926;2023-01-15T00:43:48;9.17;;;3.03;;
16813;SDS011;8524;57.650;11.926;2023-01-15T00:46:17;12.20;;;2.60;;
16813;SDS011;8524;57.650;11.926;2023-01-15T00:48:44;12.80;;;3.27;;
16813;SDS011;8524;57.650;11.926;2023-01-15T00:51:12;10.60;;;2.47;;
16813;SDS011;8524;57.650;11.926;2023-01-15T00:53:39;9.60;;;2.70;;
16813;SDS011;8524;57.650;11.926;2023-01-15T00:56:06;7.27;;;2.20;;
16813;SDS011;8524;57.650;11.926;2023-01-15T00:58:33;11.93;;;3.23;;
16813;SDS011;8524;57.650;11.926;2023-01-15T01:01:00;11.93;;;2.83;;
16813;SDS011;8524;57.650;11.926;2023-01-15T01:03:27;16.23;;;3.17;;
16813;SDS011;8524;57.650;11.926;2023-01-15T01:05:58;12.43;;;3.13;;
16813;SDS011;8524;57.650;11.926;2023-01-15T01:08:27;11.43;;;3.00;;
16813;SDS011;8524;57.650;11.926;2023-01-15T01:11:01;10.93;;;2.83;;
16813;SDS011;8524;57.650;11.926;2023-01-15T01:13:33;11.40;;;3.10;;
16813;SDS011;8524;57.650;11.926;2023-01-15T01:16:01;9.17;;;3.10;;
16813;SDS011;8524;57.650;11.926;2023-01-15T01:18:28;13.37;;;3.30;;
16813;SDS011;8524;57.650;11.926;2023-01-15T01:20:55;12.33;;;3.50;;
16813;SDS011;8524;57.650;11.926;2023-01-15T01:23:22;13.33;;;2.83;;
16813;SDS011;8524;57.650;11.926;2023-01-15T01:25:51;14.43;;;3.60;;
16813;SDS011;8524;57.650;11.926;2023-01-15T01:28:18;12.07;;;3.30;;
16813;SDS011;8524;57.650;11.926;2023-01-15T01:30:45;14.03;;;2.77;;
16813;SDS011;8524;57.650;11.926;2023-01-15T01:33:12;8.17;;;2.90;;
16813;SDS011;8524;57.650;11.926;2023-01-15T01:35:39;10.43;;;2.90;;
16813;SDS011;8524;57.650;11.926;2023-01-15T01:38:13;13.77;;;2.90;;
16813;SDS011;8524;57.650;11.926;2023-01-15T01:40:40;12.43;;;3.13;;
16813;SDS011;8524;57.650;11.926;2023-01-15T01:43:11;13.17;;;3.63;;
16813;SDS011;8524;57.650;11.926;2023-01-15T01:45:44;14.30;;;3.47;;
16813;SDS011;8524;57.650;11.926;2023-01-15T01:48:11;16.37;;;3.70;;
16813;SDS011;8524;57.650;11.926;2023-01-15T01:50:40;16.07;;;3.60;;
16813;SDS011;8524;57.650;11.926;2023-01-15T01:53:09;14.73;;;3.13;;
16813;SDS011;8524;57.650;11.926;2023-01-15T01:55:39;15.33;;;3.20;;
16813;SDS011;8524;57.650;11.926;2023-01-15T01:58:06;17.17;;;3.53;;
16813;SDS011;8524;57.650;11.926;2023-01-15T02:00:37;16.63;;;3.80;;
16813;SDS011;8524;57.650;11.926;2023-01-15T02:03:08;14.00;;;3.73;;
16813;SDS011;8524;57.650;11.926;2023-01-15T02:05:36;14.17;;;3.87;;
16813;SDS011;8524;57.650;11.926;2023-01-15T02:08:06;12.80;;;3.27;;
16813;SDS011;8524;57.650;11.926;2023-01-15T02:10:33;11.93;;;3.37;;
16813;SDS011;8524;57.650;11.926;2023-01-15T02:13:01;12.53;;;3.10;;
16813;SDS011;8524;57.650;11.926;2023-01-15T02:15:33;14.13;;;3.63;;
16813;SDS011;8524;57.650;11.926;2023-01-15T02:18:07;12.90;;;3.67;;
16813;SDS011;8524;57.650;11.926;2023-01-15T02:20:40;10.93;;;3.47;;
16813;SDS011;8524;57.650;11.926;2023-01-15T02:23:19;15.37;;;3.30;;
16813;SDS011;8524;57.650;11.926;2023-01-15T02:26:02;13.82;;;4.13;;
16813;SDS011;8524;57.650;11.926;2023-01-15T02:28:45;13.83;;;3.50;;
16813;SDS011;8524;57.650;11.926;2023-01-15T02:31:15;16.60;;;3.90;;
16813;SDS011;8524;57.650;11.926;2023-01-15T02:33:46;16.33;;;3.43;;
16813;SDS011;8524;57.650;11.926;2023-01-15T02:36:20;12.70;;;3.23;;
16813;SDS011;8524;57.650;11.926;2023-01-15T02:38:49;14.83;;;3.47;;
16813;SDS011;8524;57.650;11.926;2023-01-15T02:41:20;13.23;;;3.40;;
16813;SDS011;8524;57.650;11.926;2023-01-15T02:43:53;12.97;;;3.47;;
16813;SDS011;8524;57.650;11.926;2023-01-15T02:46:23;9.57;;;2.90;;
16813;SDS011;8524;57.650;11.926;2023-01-15T02:48:53;11.43;;;3.30;;
16813;SDS011;8524;57.650;11.926;2023-01-15T02:51:23;11.90;;;2.87;;
16813;SDS011;8524;57.650;11.926;2023-01-15T02:53:52;9.00;;;2.40;;
16813;SDS011;8524;57.650;11.926;2023-01-15T02:56:25;8.67;;;2.57;;
16813;SDS011;8524;57.650;11.926;2023-01-15T02:58:57;14.93;;;2.90;;
16813;SDS011;8524;57.650;11.926;2023-01-15T03:01:30;10.30;;;2.63;;
16813;SDS011;8524;57.650;11.926;2023-01-15T03:04:02;8.77;;;2.40;;
16813;SDS011;8524;57.650;11.926;2023-01-15T03:06:36;10.53;;;2.73;;
16813;SDS011;8524;57.650;11.926;2023-01-15T03:09:06;10.67;;;2.70;;
16813;SDS011;8524;57.650;11.926;2023-01-15T03:11:34;11.03;;;2.70;;
16813;SDS011;8524;57.650;11.926;2023-01-15T03:14:07;11.07;;;3.00;;
16813;SDS011;8524;57.650;11.926;2023-01-15T03:16:42;9.77;;;3.03;;
16813;SDS011;8524;57.650;11.926;2023-01-15T03:19:17;7.97;;;2.50;;
16813;SDS011;8524;57.650;11.926;2023-01-15T03:21:50;8.87;;;2.53;;
16813;SDS011;8524;57.650;11.926;2023-01-15T03:24:24;9.53;;;2.50;;
16813;SDS011;8524;57.650;11.926;2023-01-15T03:26:54;10.50;;;2.67;;
16813;SDS011;8524;57.650;11.926;2023-01-15T03:29:24;13.87;;;3.17;;
16813;SDS011;8524;57.650;11.926;2023-01-15T03:31:54;15.43;;;2.97;;
16813;SDS011;8524;57.650;11.926;2023-01-15T03:34:22;14.40;;;2.50;;
16813;SDS011;8524;57.650;11.926;2023-01-15T03:36:51;9.43;;;3.23;;
16813;SDS011;8524;57.650;11.926;2023-01-15T03:39:18;17.93;;;3.83;;
16813;SDS011;8524;57.650;11.926;2023-01-15T03:41:48;14.80;;;3.40;;
16813;SDS011;8524;57.650;11.926;2023-01-15T03:44:29;6.77;;;2.67;;
16813;SDS011;8524;57.650;11.926;2023-01-15T03:47:06;16.87;;;3.80;;
16813;SDS011;8524;57.650;11.926;2023-01-15T03:49:46;18.77;;;3.03;;
16813;SDS011;8524;57.650;11.926;2023-01-15T03:52:19;15.50;;;3.40;;
16813;SDS011;8524;57.650;11.926;2023-01-15T03:54:54;17.53;;;3.70;;
16813;SDS011;8524;57.650;11.926;2023-01-15T03:57:31;10.00;;;2.73;;
16813;SDS011;8524;57.650;11.926;2023-01-15T04:00:06;15.03;;;2.77;;
16813;SDS011;8524;57.650;11.926;2023-01-15T04:02:38;12.97;;;3.27;;
16813;SDS011;8524;57.650;11.926;2023-01-15T04:05:06;15.77;;;3.03;;
16813;SDS011;8524;57.650;11.926;2023-01-15T04:07:34;10.60;;;2.90;;
16813;SDS011;8524;57.650;11.926;2023-01-15T04:10:01;15.17;;;3.20;;
16813;SDS011;8524;57.650;11.926;2023-01-15T04:12:30;14.52;;;3.65;;
16813;SDS011;8524;57.650;11.926;2023-01-15T04:14:58;18.20;;;3.50;;
16813;SDS011;8524;57.650;11.926;2023-01-15T04:17:26;16.03;;;3.63;;
16813;SDS011;8524;57.650;11.926;2023-01-15T04:19:53;13.33;;;3.50;;
16813;SDS011;8524;57.650;11.926;2023-01-15T04:22:20;13.30;;;3.33;;
16813;SDS011;8524;57.650;11.926;2023-01-15T04:24:47;9.50;;;3.03;;
16813;SDS011;8524;57.650;11.926;2023-01-15T04:27:14;10.43;;;3.07;;
16813;SDS011;8524;57.650;11.926;2023-01-15T04:29:41;11.73;;;3.00;;
16813;SDS011;8524;57.650;11.926;2023-01-15T04:32:08;12.20;;;3.10;;
16813;SDS011;8524;57.650;11.926;2023-01-15T04:34:37;17.43;;;3.70;;
16813;SDS011;8524;57.650;11.926;2023-01-15T04:37:04;19.30;;;4.03;;
16813;SDS011;8524;57.650;11.926;2023-01-15T04:39:31;17.40;;;4.00;;
16813;SDS011;8524;57.650;11.926;2023-01-15T04:41:58;17.27;;;3.77;;
16813;SDS011;8524;57.650;11.926;2023-01-15T04:44:42;17.40;;;3.93;;
16813;SDS011;8524;57.650;11.926;2023-01-15T04:47:09;13.10;;;3.37;;
16813;SDS011;8524;57.650;11.926;2023-01-15T04:49:38;14.50;;;3.40;;
16813;SDS011;8524;57.650;11.926;2023-01-15T04:52:05;17.60;;;4.00;;
16813;SDS011;8524;57.650;11.926;2023-01-15T04:54:32;12.40;;;4.28;;
16813;SDS011;8524;57.650;11.926;2023-01-15T04:56:59;15.93;;;4.23;;
16813;SDS011;8524;57.650;11.926;2023-01-15T04:59:26;17.23;;;3.50;;
16813;SDS011;8524;57.650;11.926;2023-01-15T05:01:53;15.60;;;4.23;;
16813;SDS011;8524;57.650;11.926;2023-01-15T05:04:21;15.47;;;4.10;;
16813;SDS011;8524;57.650;11.926;2023-01-15T05:06:49;14.00;;;3.27;;
16813;SDS011;8524;57.650;11.926;2023-01-15T05:09:17;14.07;;;3.30;;
16813;SDS011;8524;57.650;11.926;2023-01-15T05:11:44;14.73;;;3.03;;
16813;SDS011;8524;57.650;11.926;2023-01-15T05:14:11;12.43;;;3.30;;
16813;SDS011;8524;57.650;11.926;2023-01-15T05:16:38;13.93;;;3.80;;
16813;SDS011;8524;57.650;11.926;2023-01-15T05:19:05;17.73;;;3.77;;
16813;SDS011;8524;57.650;11.926;2023-01-15T05:21:33;17.03;;;4.10;;
16813;SDS011;8524;57.650;11.926;2023-01-15T05:24:03;14.60;;;3.83;;
16813;SDS011;8524;57.650;11.926;2023-01-15T05:26:33;12.23;;;3.63;;
16813;SDS011;8524;57.650;11.926;2023-01-15T05:29:01;13.60;;;3.70;;
16813;SDS011;8524;57.650;11.926;2023-01-15T05:31:28;16.23;;;4.03;;
16813;SDS011;8524;57.650;11.926;2023-01-15T05:33:58;12.63;;;3.33;;
16813;SDS011;8524;57.650;11.926;2023-01-15T05:36:25;14.67;;;3.73;;
16813;SDS011;8524;57.650;11.926;2023-01-15T05:38:54;18.17;;;4.40;;
16813;SDS011;8524;57.650;11.926;2023-01-15T05:41:25;12.43;;;3.57;;
16813;SDS011;8524;57.650;11.926;2023-01-15T05:44:10;15.80;;;3.97;;
16813;SDS011;8524;57.650;11.926;2023-01-15T05:46:38;13.63;;;3.73;;
16813;SDS011;8524;57.650;11.926;2023-01-15T05:49:07;15.67;;;3.87;;
16813;SDS011;8524;57.650;11.926;2023-01-15T05:51:35;22.37;;;4.67;;
16813;SDS011;8524;57.650;11.926;2023-01-15T05:54:04;15.17;;;3.57;;
16813;SDS011;8524;57.650;11.926;2023-01-15T05:56:34;12.93;;;3.40;;
16813;SDS011;8524;57.650;11.926;2023-01-15T05:59:03;13.33;;;3.33;;
16813;SDS011;8524;57.650;11.926;2023-01-15T06:01:30;15.63;;;3.83;;
16813;SDS011;8524;57.650;11.926;2023-01-15T06:03:58;12.90;;;3.43;;
16813;SDS011;8524;57.650;11.926;2023-01-15T06:06:26;16.27;;;3.37;;
16813;SDS011;8524;57.650;11.926;2023-01-15T06:08:53;12.27;;;3.73;;
16813;SDS011;8524;57.650;11.926;2023-01-15T06:11:20;14.87;;;3.40;;
16813;SDS011;8524;57.650;11.926;2023-01-15T06:13:49;16.80;;;3.97;;
16813;SDS011;8524;57.650;11.926;2023-01-15T06:16:16;14.13;;;4.37;;
16813;SDS011;8524;57.650;11.926;2023-01-15T06:18:44;16.10;;;3.60;;
16813;SDS011;8524;57.650;11.926;2023-01-15T06:21:13;14.27;;;3.83;;
16813;SDS011;8524;57.650;11.926;2023-01-15T06:23:40;11.93;;;3.40;;
16813;SDS011;8524;57.650;11.926;2023-01-15T06:26:10;15.87;;;3.90;;
16813;SDS011;8524;57.650;11.926;2023-01-15T06:28:38;13.47;;;3.90;;
16813;SDS011;8524;57.650;11.926;2023-01-15T06:31:07;15.07;;;3.60;;
16813;SDS011;8524;57.650;11.926;2023-01-15T06:33:36;11.57;;;3.77;;
16813;SDS011;8524;57.650;11.926;2023-01-15T06:36:03;14.67;;;3.77;;
16813;SDS011;8524;57.650;11.926;2023-01-15T06:38:31;10.87;;;3.43;;
16813;SDS011;8524;57.650;11.926;2023-01-15T06:40:58;12.87;;;3.87;;
16813;SDS011;8524;57.650;11.926;2023-01-15T06:43:26;18.27;;;4.17;;
16813;SDS011;8524;57.650;11.926;2023-01-15T06:46:12;11.73;;;3.37;;
16813;SDS011;8524;57.650;11.926;2023-01-15T06:48:58;15.97;;;4.60;;
16813;SDS011;8524;57.650;11.926;2023-01-15T06:51:25;19.03;;;3.83;;
16813;SDS011;8524;57.650;11.926;2023-01-15T06:53:52;16.13;;;3.70;;
16813;SDS011;8524;57.650;11.926;2023-01-15T06:56:19;18.13;;;4.30;;
16813;SDS011;8524;57.650;11.926;2023-01-15T06:58:46;19.50;;;3.40;;
16813;SDS011;8524;57.650;11.926;2023-01-15T07:01:15;19.77;;;4.50;;
16813;SDS011;8524;57.650;11.926;2023-01-15T07:03:42;14.77;;;3.47;;
16813;SDS011;8524;57.650;11.926;2023-01-15T07:06:10;18.03;;;5.27;;
16813;SDS011;8524;57.650;11.926;2023-01-15T07:08:38;16.17;;;4.13;;
16813;SDS011;8524;57.650;11.926;2023-01-15T07:11:06;20.90;;;4.43;;
16813;SDS011;8524;57.650;11.926;2023-01-15T07:13:35;15.40;;;4.23;;
16813;SDS011;8524;57.650;11.926;2023-01-15T07:16:02;13.73;;;4.17;;
16813;SDS011;8524;57.650;11.926;2023-01-15T07:18:52;16.30;;;4.10;;
16813;SDS011;8524;57.650;11.926;2023-01-15T07:21:20;23.53;;;4.80;;
16813;SDS011;8524;57.650;11.926;2023-01-15T07:23:47;19.33;;;4.23;;
16813;SDS011;8524;57.650;11.926;2023-01-15T07:26:14;14.33;;;3.33;;
16813;SDS011;8524;57.650;11.926;2023-01-15T07:28:41;18.70;;;4.60;;
16813;SDS011;8524;57.650;11.926;2023-01-15T07:31:08;14.20;;;3.97;;
16813;SDS011;8524;57.650;11.926;2023-01-15T07:33:35;15.50;;;4.27;;
16813;SDS011;8524;57.650;11.926;2023-01-15T07:36:04;20.43;;;5.10;;
16813;SDS011;8524;57.650;11.926;2023-01-15T07:38:31;15.20;;;4.27;;
16813;SDS011;8524;57.650;11.926;2023-01-15T07:40:59;16.53;;;4.40;;
16813;SDS011;8524;57.650;11.926;2023-01-15T07:43:40;20.07;;;4.60;;
16813;SDS011;8524;57.650;11.926;2023-01-15T07:46:25;15.27;;;4.47;;
16813;SDS011;8524;57.650;11.926;2023-01-15T07:49:09;16.87;;;3.97;;
16813;SDS011;8524;57.650;11.926;2023-01-15T07:51:56;21.20;;;5.57;;
16813;SDS011;8524;57.650;11.926;2023-01-15T07:54:23;15.27;;;4.07;;
16813;SDS011;8524;57.650;11.926;2023-01-15T07:56:50;16.87;;;4.33;;
16813;SDS011;8524;57.650;11.926;2023-01-15T07:59:18;14.13;;;3.97;;
16813;SDS011;8524;57.650;11.926;2023-01-15T08:01:45;13.33;;;4.13;;
16813;SDS011;8524;57.650;11.926;2023-01-15T08:04:12;17.93;;;4.83;;
16813;SDS011;8524;57.650;11.926;2023-01-15T08:06:39;15.80;;;4.13;;
16813;SDS011;8524;57.650;11.926;2023-01-15T08:09:08;16.77;;;4.97;;
16813;SDS011;8524;57.650;11.926;2023-01-15T08:11:35;17.90;;;4.23;;
16813;SDS011;8524;57.650;11.926;2023-01-15T08:14:19;14.90;;;3.63;;
16813;SDS011;8524;57.650;11.926;2023-01-15T08:17:04;19.00;;;4.60;;
16813;SDS011;8524;57.650;11.926;2023-01-15T08:19:31;15.93;;;4.20;;
16813;SDS011;8524;57.650;11.926;2023-01-15T08:21:58;21.20;;;4.17;;
16813;SDS011;8524;57.650;11.926;2023-01-15T08:24:27;17.00;;;4.10;;
16813;SDS011;8524;57.650;11.926;2023-01-15T08:26:54;15.80;;;4.50;;
16813;SDS011;8524;57.650;11.926;2023-01-15T08:29:21;21.57;;;4.67;;
16813;SDS011;8524;57.650;11.926;2023-01-15T08:31:48;17.97;;;4.60;;
16813;SDS011;8524;57.650;11.926;2023-01-15T08:34:15;14.77;;;3.90;;
16813;SDS011;8524;57.650;11.926;2023-01-15T08:36:43;12.63;;;3.37;;
16813;SDS011;8524;57.650;11.926;2023-01-15T08:39:10;14.73;;;3.97;;
16813;SDS011;8524;57.650;11.926;2023-01-15T08:41:38;11.93;;;3.20;;
16813;SDS011;8524;57.650;11.926;2023-01-15T08:44:05;17.40;;;3.30;;
16813;SDS011;8524;57.650;11.926;2023-01-15T08:46:32;13.90;;;3.90;;
16813;SDS011;8524;57.650;11.926;2023-01-15T08:48:59;20.03;;;4.40;;
16813;SDS011;8524;57.650;11.926;2023-01-15T08:51:26;15.67;;;3.97;;
16813;SDS011;8524;57.650;11.926;2023-01-15T08:53:53;17.20;;;3.83;;
16813;SDS011;8524;57.650;11.926;2023-01-15T08:56:20;17.23;;;4.17;;
16813;SDS011;8524;57.650;11.926;2023-01-15T08:58:49;18.70;;;4.17;;
16813;SDS011;8524;57.650;11.926;2023-01-15T09:01:16;14.97;;;3.87;;
16813;SDS011;8524;57.650;11.926;2023-01-15T09:03:43;16.90;;;4.53;;
16813;SDS011;8524;57.650;11.926;2023-01-15T09:06:10;21.07;;;4.27;;
16813;SDS011;8524;57.650;11.926;2023-01-15T09:08:37;15.57;;;4.60;;
16813;SDS011;8524;57.650;11.926;2023-01-15T09:11:05;16.47;;;4.20;;
16813;SDS011;8524;57.650;11.926;2023-01-15T09:13:34;15.57;;;3.60;;
16813;SDS011;8524;57.650;11.926;2023-01-15T09:16:04;14.00;;;4.07;;
16813;SDS011;8524;57.650;11.926;2023-01-15T09:18:35;16.23;;;3.47;;
16813;SDS011;8524;57.650;11.926;2023-01-15T09:21:03;16.87;;;4.00;;
16813;SDS011;8524;57.650;11.926;2023-01-15T09:23:30;16.03;;;4.10;;
16813;SDS011;8524;57.650;11.926;2023-01-15T09:25:58;15.80;;;4.77;;
16813;SDS011;8524;57.650;11.926;2023-01-15T09:28:26;13.97;;;4.17;;
16813;SDS011;8524;57.650;11.926;2023-01-15T09:30:54;15.80;;;3.60;;
16813;SDS011;8524;57.650;11.926;2023-01-15T09:33:22;18.60;;;5.20;;
16813;SDS011;8524;57.650;11.926;2023-01-15T09:35:49;15.60;;;4.13;;
16813;SDS011;8524;57.650;11.926;2023-01-15T09:38:17;12.37;;;4.93;;
16813;SDS011;8524;57.650;11.926;2023-01-15T09:40:47;21.60;;;4.73;;
16813;SDS011;8524;57.650;11.926;2023-01-15T09:43:28;13.87;;;3.70;;
16813;SDS011;8524;57.650;11.926;2023-01-15T09:46:08;21.75;;;5.38;;
16813;SDS011;8524;57.650;11.926;2023-01-15T09:48:46;18.17;;;4.47;;
16813;SDS011;8524;57.650;11.926;2023-01-15T09:51:23;13.40;;;3.73;;
16813;SDS011;8524;57.650;11.926;2023-01-15T09:54:00;16.83;;;3.70;;
16813;SDS011;8524;57.650;11.926;2023-01-15T09:56:47;17.60;;;4.90;;
16813;SDS011;8524;57.650;11.926;2023-01-15T09:59:17;13.03;;;4.47;;
16813;SDS011;8524;57.650;11.926;2023-01-15T10:01:47;15.87;;;3.87;;
16813;SDS011;8524;57.650;11.926;2023-01-15T10:04:21;16.27;;;4.87;;
16813;SDS011;8524;57.650;11.926;2023-01-15T10:07:02;19.90;;;4.97;;
16813;SDS011;8524;57.650;11.926;2023-01-15T10:09:34;16.60;;;4.30;;
16813;SDS011;8524;57.650;11.926;2023-01-15T10:12:06;21.00;;;4.37;;
16813;SDS011;8524;57.650;11.926;2023-01-15T10:15:02;18.20;;;4.20;;
16813;SDS011;8524;57.650;11.926;2023-01-15T10:17:36;17.20;;;4.47;;
16813;SDS011;8524;57.650;11.926;2023-01-15T10:22:55;12.00;;;4.37;;
16813;SDS011;8524;57.650;11.926;2023-01-15T10:25:33;20.83;;;4.30;;
16813;SDS011;8524;57.650;11.926;2023-01-15T10:28:10;18.23;;;4.90;;
16813;SDS011;8524;57.650;11.926;2023-01-15T10:30:43;16.80;;;4.13;;
16813;SDS011;8524;57.650;11.926;2023-01-15T10:33:18;14.47;;;4.43;;
16813;SDS011;8524;57.650;11.926;2023-01-15T10:36:21;19.13;;;4.37;;
16813;SDS011;8524;57.650;11.926;2023-01-15T10:38:55;18.47;;;4.23;;
16813;SDS011;8524;57.650;11.926;2023-01-15T10:41:30;13.60;;;3.60;;
16813;SDS011;8524;57.650;11.926;2023-01-15T10:44:09;14.20;;;4.47;;
16813;SDS011;8524;57.650;11.926;2023-01-15T10:46:41;15.83;;;3.97;;
16813;SDS011;8524;57.650;11.926;2023-01-15T10:49:15;12.70;;;3.63;;
16813;SDS011;8524;57.650;11.926;2023-01-15T10:51:45;14.57;;;4.00;;
16813;SDS011;8524;57.650;11.926;2023-01-15T10:54:16;18.27;;;4.43;;
16813;SDS011;8524;57.650;11.926;2023-01-15T10:56:50;13.67;;;5.07;;
16813;SDS011;8524;57.650;11.926;2023-01-15T10:59:29;20.03;;;4.37;;
16813;SDS011;8524;57.650;11.926;2023-01-15T11:02:02;14.87;;;4.10;;
16813;SDS011;8524;57.650;11.926;2023-01-15T11:04:47;16.07;;;4.97;;
16813;SDS011;8524;57.650;11.926;2023-01-15T11:07:15;18.90;;;4.80;;
16813;SDS011;8524;57.650;11.926;2023-01-15T11:09:43;17.13;;;4.13;;
16813;SDS011;8524;57.650;11.926;2023-01-15T11:12:20;16.57;;;4.90;;
16813;SDS011;8524;57.650;11.926;2023-01-15T11:15:15;16.10;;;4.60;;
16813;SDS011;8524;57.650;11.926;2023-01-15T11:18:06;15.57;;;4.17;;
16813;SDS011;8524;57.650;11.926;2023-01-15T11:20:56;13.87;;;3.37;;
16813;SDS011;8524;57.650;11.926;2023-01-15T11:23:24;14.70;;;3.90;;
16813;SDS011;8524;57.650;11.926;2023-01-15T11:25:52;13.03;;;3.93;;
16813;SDS011;8524;57.650;11.926;2023-01-15T11:28:29;14.97;;;3.83;;
16813;SDS011;8524;57.650;11.926;2023-01-15T11:30:59;14.43;;;4.53;;
16813;SDS011;8524;57.650;11.926;2023-01-15T11:33:27;18.07;;;4.87;;
16813;SDS011;8524;57.650;11.926;2023-01-15T11:35:57;17.77;;;4.60;;
16813;SDS011;8524;57.650;11.926;2023-01-15T11:38:28;15.77;;;4.93;;
16813;SDS011;8524;57.650;11.926;2023-01-15T11:40:57;17.67;;;4.43;;
16813;SDS011;8524;57.650;11.926;2023-01-15T11:43:26;16.50;;;4.17;;
16813;SDS011;8524;57.650;11.926;2023-01-15T11:46:22;17.37;;;4.37;;
16813;SDS011;8524;57.650;11.926;2023-01-15T11:49:07;19.10;;;5.10;;
16813;SDS011;8524;57.650;11.926;2023-01-15T11:51:52;14.07;;;4.50;;
16813;SDS011;8524;57.650;11.926;2023-01-15T11:54:24;17.67;;;4.70;;
16813;SDS011;8524;57.650;11.926;2023-01-15T11:56:52;21.03;;;4.33;;
16813;SDS011;8524;57.650;11.926;2023-01-15T11:59:20;17.10;;;5.23;;
16813;SDS011;8524;57.650;11.926;2023-01-15T12:01:49;14.63;;;4.63;;
16813;SDS011;8524;57.650;11.926;2023-01-15T12:04:24;20.50;;;4.57;;
16813;SDS011;8524;57.650;11.926;2023-01-15T12:06:56;17.17;;;3.73;;
16813;SDS011;8524;57.650;11.926;2023-01-15T12:09:27;13.27;;;3.47;;
16813;SDS011;8524;57.650;11.926;2023-01-15T12:12:07;15.80;;;4.03;;
16813;SDS011;8524;57.650;11.926;2023-01-15T12:14:48;13.23;;;3.47;;
16813;SDS011;8524;57.650;11.926;2023-01-15T12:17:28;14.67;;;3.53;;
16813;SDS011;8524;57.650;11.926;2023-01-15T12:20:15;15.70;;;3.70;;
16813;SDS011;8524;57.650;11.926;2023-01-15T12:22:59;14.00;;;3.57;;
16813;SDS011;8524;57.650;11.926;2023-01-15T12:25:42;16.70;;;4.10;;
16813;SDS011;8524;57.650;11.926;2023-01-15T12:28:19;12.27;;;3.57;;
16813;SDS011;8524;57.650;11.926;2023-01-15T12:30:53;13.50;;;3.20;;
16813;SDS011;8524;57.650;11.926;2023-01-15T12:33:31;15.93;;;3.80;;
16813;SDS011;8524;57.650;11.926;2023-01-15T12:36:07;14.80;;;3.90;;
16813;SDS011;8524;57.650;11.926;2023-01-15T12:38:44;14.73;;;3.70;;
16813;SDS011;8524;57.650;11.926;2023-01-15T12:41:18;15.57;;;4.17;;
16813;SDS011;8524;57.650;11.926;2023-01-15T12:43:50;11.27;;;3.70;;
16813;SDS011;8524;57.650;11.926;2023-01-15T12:46:39;11.70;;;3.57;;
16813;SDS011;8524;57.650;11.926;2023-01-15T12:49:12;12.83;;;3.63;;
16813;SDS011;8524;57.650;11.926;2023-01-15T12:51:50;17.53;;;4.27;;
16813;SDS011;8524;57.650;11.926;2023-01-15T12:54:24;15.00;;;3.97;;
16813;SDS011;8524;57.650;11.926;2023-01-15T12:57:01;17.00;;;3.60;;
16813;SDS011;8524;57.650;11.926;2023-01-15T12:59:36;14.57;;;3.53;;
16813;SDS011;8524;57.650;11.926;2023-01-15T13:02:11;13.33;;;3.27;;
16813;SDS011;8524;57.650;11.926;2023-01-15T13:04:45;13.27;;;4.00;;
16813;SDS011;8524;57.650;11.926;2023-01-15T13:07:17;11.40;;;3.60;;
16813;SDS011;8524;57.650;11.926;2023-01-15T13:09:51;11.77;;;3.60;;
16813;SDS011;8524;57.650;11.926;2023-01-15T13:12:26;15.07;;;3.80;;
16813;SDS011;8524;57.650;11.926;2023-01-15T13:14:54;16.00;;;4.03;;
16813;SDS011;8524;57.650;11.926;2023-01-15T13:17:24;16.07;;;4.07;;
16813;SDS011;8524;57.650;11.926;2023-01-15T13:20:03;17.77;;;4.10;;
16813;SDS011;8524;57.650;11.926;2023-01-15T13:22:41;14.33;;;3.87;;
16813;SDS011;8524;57.650;11.926;2023-01-15T13:28:23;13.67;;;3.87;;
16813;SDS011;8524;57.650;11.926;2023-01-15T13:31:03;19.57;;;4.50;;
16813;SDS011;8524;57.650;11.926;2023-01-15T13:33:38;16.50;;;4.23;;
16813;SDS011;8524;57.650;11.926;2023-01-15T13:36:10;16.87;;;4.27;;
16813;SDS011;8524;57.650;11.926;2023-01-15T13:38:42;14.33;;;4.80;;
16813;SDS011;8524;57.650;11.926;2023-01-15T13:41:11;20.13;;;4.07;;
16813;SDS011;8524;57.650;11.926;2023-01-15T13:44:10;18.30;;;4.03;;
16813;SDS011;8524;57.650;11.926;2023-01-15T13:46:42;14.20;;;4.07;;
16813;SDS011;8524;57.650;11.926;2023-01-15T13:49:16;20.43;;;5.03;;
16813;SDS011;8524;57.650;11.926;2023-01-15T13:51:45;14.93;;;4.07;;
16813;SDS011;8524;57.650;11.926;2023-01-15T13:54:15;13.20;;;4.13;;
16813;SDS011;8524;57.650;11.926;2023-01-15T13:56:44;14.80;;;3.67;;
16813;SDS011;8524;57.650;11.926;2023-01-15T13:59:30;19.47;;;4.33;;
16813;SDS011;8524;57.650;11.926;2023-01-15T14:02:12;19.03;;;3.90;;
16813;SDS011;8524;57.650;11.926;2023-01-15T14:04:47;16.53;;;3.73;;
16813;SDS011;8524;57.650;11.926;2023-01-15T14:07:17;13.43;;;3.87;;
16813;SDS011;8524;57.650;11.926;2023-01-15T14:09:47;16.83;;;3.93;;
16813;SDS011;8524;57.650;11.926;2023-01-15T14:12:17;16.90;;;3.80;;
16813;SDS011;8524;57.650;11.926;2023-01-15T14:18:02;15.53;;;4.03;;
16813;SDS011;8524;57.650;11.926;2023-01-15T14:20:46;14.80;;;3.67;;
16813;SDS011;8524;57.650;11.926;2023-01-15T14:23:28;12.70;;;3.60;;
16813;SDS011;8524;57.650;11.926;2023-01-15T14:26:10;18.00;;;4.80;;
16813;SDS011;8524;57.650;11.926;2023-01-15T14:28:47;15.67;;;3.73;;
16813;SDS011;8524;57.650;11.926;2023-01-15T14:31:31;12.23;;;3.70;;
16813;SDS011;8524;57.650;11.926;2023-01-15T14:34:11;13.60;;;4.10;;
16813;SDS011;8524;57.650;11.926;2023-01-15T14:36:45;16.17;;;4.20;;
16813;SDS011;8524;57.650;11.926;2023-01-15T14:39:23;17.10;;;4.07;;
16813;SDS011;8524;57.650;11.926;2023-01-15T14:42:13;12.33;;;4.20;;
16813;SDS011;8524;57.650;11.926;2023-01-15T14:45:06;14.87;;;4.07;;
16813;SDS011;8524;57.650;11.926;2023-01-15T14:47:44;18.60;;;4.10;;
16813;SDS011;8524;57.650;11.926;2023-01-15T14:50:23;16.33;;;3.67;;
16813;SDS011;8524;57.650;11.926;2023-01-15T14:52:57;15.10;;;4.07;;
16813;SDS011;8524;57.650;11.926;2023-01-15T14:55:27;16.67;;;4.00;;
16813;SDS011;8524;57.650;11.926;2023-01-15T14:57:55;16.70;;;3.43;;
16813;SDS011;8524;57.650;11.926;2023-01-15T15:00:28;13.77;;;4.00;;
16813;SDS011;8524;57.650;11.926;2023-01-15T15:03:00;14.83;;;3.57;;
16813;SDS011;8524;57.650;11.926;2023-01-15T15:05:36;14.23;;;3.70;;
16813;SDS011;8524;57.650;11.926;2023-01-15T15:08:08;10.53;;;3.37;;
16813;SDS011;8524;57.650;11.926;2023-01-15T15:10:39;12.00;;;3.27;;
16813;SDS011;8524;57.650;11.926;2023-01-15T15:13:11;10.83;;;3.40;;